sensor_id;sensor_type;location;lat;lon;timestamp;P1;durP1;ratioP1;P2;durP2;ratioP2
63259;SDS011;49390;51.380;0.098;2023-04-24T00:02:08;31.33;;;16.85;;
63259;SDS011;49390;51.380;0.098;2023-04-24T00:04:38;34.00;;;16.77;;
63259;SDS011;49390;51.380;0.098;2023-04-24T00:07:12;33.38;;;16.38;;
63259;SDS011;49390;51.380;0.098;2023-04-24T00:09:42;30.63;;;16.48;;
63259;SDS011;49390;51.380;0.098;2023-04-24T00:12:11;34.53;;;17.58;;
63259;SDS011;49390;51.380;0.098;2023-04-24T00:14:39;31.63;;;16.90;;
63259;SDS011;49390;51.380;0.098;2023-04-24T00:17:07;32.45;;;16.75;;
63259;SDS011;49390;51.380;0.098;2023-04-24T00:19:35;31.25;;;16.33;;
63259;SDS011;49390;51.380;0.098;2023-04-24T00:22:03;33.08;;;17.38;;
63259;SDS011;49390;51.380;0.098;2023-04-24T00:24:31;31.67;;;15.55;;
63259;SDS011;49390;51.380;0.098;2023-04-24T00:26:59;35.30;;;17.27;;
63259;SDS011;49390;51.380;0.098;2023-04-24T00:29:28;30.63;;;15.80;;
63259;SDS011;49390;51.380;0.098;2023-04-24T00:31:56;33.17;;;17.02;;
63259;SDS011;49390;51.380;0.098;2023-04-24T00:34:24;35.13;;;16.30;;
63259;SDS011;49390;51.380;0.098;2023-04-24T00:36:55;30.67;;;15.18;;
63259;SDS011;49390;51.380;0.098;2023-04-24T00:39:23;31.65;;;16.60;;
63259;SDS011;49390;51.380;0.098;2023-04-24T00:41:51;33.33;;;15.50;;
63259;SDS011;49390;51.380;0.098;2023-04-24T00:44:19;35.45;;;15.88;;
63259;SDS011;49390;51.380;0.098;2023-04-24T00:46:48;31.48;;;15.63;;
63259;SDS011;49390;51.380;0.098;2023-04-24T00:49:22;29.88;;;15.45;;
63259;SDS011;49390;51.380;0.098;2023-04-24T00:51:50;30.13;;;14.57;;
63259;SDS011;49390;51.380;0.098;2023-04-24T00:54:20;30.50;;;17.07;;
63259;SDS011;49390;51.380;0.098;2023-04-24T00:56:50;28.23;;;15.30;;
63259;SDS011;49390;51.380;0.098;2023-04-24T00:59:19;28.52;;;15.32;;
63259;SDS011;49390;51.380;0.098;2023-04-24T01:01:47;29.13;;;14.32;;
63259;SDS011;49390;51.380;0.098;2023-04-24T01:04:15;28.80;;;14.70;;
63259;SDS011;49390;51.380;0.098;2023-04-24T01:06:47;28.42;;;15.30;;
63259;SDS011;49390;51.380;0.098;2023-04-24T01:09:19;28.35;;;15.27;;
63259;SDS011;49390;51.380;0.098;2023-04-24T01:11:50;28.92;;;14.25;;
63259;SDS011;49390;51.380;0.098;2023-04-24T01:14:18;27.50;;;14.48;;
63259;SDS011;49390;51.380;0.098;2023-04-24T01:16:49;29.95;;;15.80;;
63259;SDS011;49390;51.380;0.098;2023-04-24T01:19:17;28.60;;;14.88;;
63259;SDS011;49390;51.380;0.098;2023-04-24T01:21:46;31.83;;;15.60;;
63259;SDS011;49390;51.380;0.098;2023-04-24T01:24:17;30.52;;;14.35;;
63259;SDS011;49390;51.380;0.098;2023-04-24T01:26:47;32.45;;;15.77;;
63259;SDS011;49390;51.380;0.098;2023-04-24T01:29:14;26.42;;;13.40;;
63259;SDS011;49390;51.380;0.098;2023-04-24T01:31:43;29.17;;;14.57;;
63259;SDS011;49390;51.380;0.098;2023-04-24T01:34:11;28.40;;;14.60;;
63259;SDS011;49390;51.380;0.098;2023-04-24T01:36:40;29.85;;;15.27;;
63259;SDS011;49390;51.380;0.098;2023-04-24T01:39:10;28.85;;;14.38;;
63259;SDS011;49390;51.380;0.098;2023-04-24T01:41:38;26.65;;;14.57;;
63259;SDS011;49390;51.380;0.098;2023-04-24T01:44:06;28.40;;;14.05;;
63259;SDS011;49390;51.380;0.098;2023-04-24T01:46:37;27.70;;;14.70;;
63259;SDS011;49390;51.380;0.098;2023-04-24T01:49:05;28.27;;;14.98;;
63259;SDS011;49390;51.380;0.098;2023-04-24T01:51:33;29.33;;;15.23;;
63259;SDS011;49390;51.380;0.098;2023-04-24T01:54:02;28.70;;;15.55;;
63259;SDS011;49390;51.380;0.098;2023-04-24T01:56:31;29.30;;;15.52;;
63259;SDS011;49390;51.380;0.098;2023-04-24T01:59:02;29.23;;;14.73;;
63259;SDS011;49390;51.380;0.098;2023-04-24T02:01:34;32.38;;;14.98;;
63259;SDS011;49390;51.380;0.098;2023-04-24T02:04:04;28.05;;;13.77;;
63259;SDS011;49390;51.380;0.098;2023-04-24T02:06:35;25.80;;;14.70;;
63259;SDS011;49390;51.380;0.098;2023-04-24T02:09:05;28.77;;;14.55;;
63259;SDS011;49390;51.380;0.098;2023-04-24T02:11:34;27.27;;;14.38;;
63259;SDS011;49390;51.380;0.098;2023-04-24T02:14:02;28.38;;;14.27;;
63259;SDS011;49390;51.380;0.098;2023-04-24T02:16:31;26.17;;;13.55;;
63259;SDS011;49390;51.380;0.098;2023-04-24T02:19:00;27.73;;;14.35;;
63259;SDS011;49390;51.380;0.098;2023-04-24T02:21:28;27.73;;;15.02;;
63259;SDS011;49390;51.380;0.098;2023-04-24T02:23:57;29.13;;;15.18;;
63259;SDS011;49390;51.380;0.098;2023-04-24T02:26:25;25.35;;;13.95;;
63259;SDS011;49390;51.380;0.098;2023-04-24T02:28:54;26.98;;;14.43;;
63259;SDS011;49390;51.380;0.098;2023-04-24T02:31:22;27.42;;;14.50;;
63259;SDS011;49390;51.380;0.098;2023-04-24T02:33:50;29.60;;;14.45;;
63259;SDS011;49390;51.380;0.098;2023-04-24T02:36:18;27.77;;;14.43;;
63259;SDS011;49390;51.380;0.098;2023-04-24T02:38:48;29.38;;;14.13;;
63259;SDS011;49390;51.380;0.098;2023-04-24T02:41:18;25.40;;;13.43;;
63259;SDS011;49390;51.380;0.098;2023-04-24T02:43:48;28.02;;;15.05;;
63259;SDS011;49390;51.380;0.098;2023-04-24T02:46:17;26.13;;;13.68;;
63259;SDS011;49390;51.380;0.098;2023-04-24T02:48:44;27.38;;;13.90;;
63259;SDS011;49390;51.380;0.098;2023-04-24T02:51:13;27.40;;;13.57;;
63259;SDS011;49390;51.380;0.098;2023-04-24T02:53:43;25.20;;;13.20;;
63259;SDS011;49390;51.380;0.098;2023-04-24T02:56:11;24.85;;;12.80;;
63259;SDS011;49390;51.380;0.098;2023-04-24T02:58:40;27.63;;;13.68;;
63259;SDS011;49390;51.380;0.098;2023-04-24T03:01:08;24.50;;;12.60;;
63259;SDS011;49390;51.380;0.098;2023-04-24T03:03:38;26.63;;;13.32;;
63259;SDS011;49390;51.380;0.098;2023-04-24T03:06:07;26.25;;;13.93;;
63259;SDS011;49390;51.380;0.098;2023-04-24T03:08:35;25.02;;;12.48;;
63259;SDS011;49390;51.380;0.098;2023-04-24T03:11:03;26.10;;;13.60;;
63259;SDS011;49390;51.380;0.098;2023-04-24T03:13:31;25.40;;;12.98;;
63259;SDS011;49390;51.380;0.098;2023-04-24T03:16:02;26.48;;;13.13;;
63259;SDS011;49390;51.380;0.098;2023-04-24T03:18:30;24.52;;;12.30;;
63259;SDS011;49390;51.380;0.098;2023-04-24T03:20:59;26.63;;;13.07;;
63259;SDS011;49390;51.380;0.098;2023-04-24T03:23:27;24.52;;;12.82;;
63259;SDS011;49390;51.380;0.098;2023-04-24T03:25:55;26.83;;;13.25;;
63259;SDS011;49390;51.380;0.098;2023-04-24T03:28:24;24.77;;;13.13;;
63259;SDS011;49390;51.380;0.098;2023-04-24T03:31:00;24.65;;;13.05;;
63259;SDS011;49390;51.380;0.098;2023-04-24T03:33:35;29.00;;;13.60;;
63259;SDS011;49390;51.380;0.098;2023-04-24T03:36:04;23.77;;;12.60;;
63259;SDS011;49390;51.380;0.098;2023-04-24T03:38:39;25.55;;;12.45;;
63259;SDS011;49390;51.380;0.098;2023-04-24T03:41:27;24.73;;;12.75;;
63259;SDS011;49390;51.380;0.098;2023-04-24T03:44:04;25.95;;;12.68;;
63259;SDS011;49390;51.380;0.098;2023-04-24T03:46:32;25.20;;;12.68;;
63259;SDS011;49390;51.380;0.098;2023-04-24T03:49:01;26.08;;;13.18;;
63259;SDS011;49390;51.380;0.098;2023-04-24T03:51:34;23.85;;;12.30;;
63259;SDS011;49390;51.380;0.098;2023-04-24T03:54:11;25.65;;;13.50;;
63259;SDS011;49390;51.380;0.098;2023-04-24T03:56:40;25.35;;;13.43;;
63259;SDS011;49390;51.380;0.098;2023-04-24T03:59:08;23.88;;;12.20;;
63259;SDS011;49390;51.380;0.098;2023-04-24T04:01:37;24.55;;;12.68;;
63259;SDS011;49390;51.380;0.098;2023-04-24T04:04:10;24.50;;;12.45;;
63259;SDS011;49390;51.380;0.098;2023-04-24T04:06:39;23.35;;;11.95;;
63259;SDS011;49390;51.380;0.098;2023-04-24T04:09:07;22.70;;;11.68;;
63259;SDS011;49390;51.380;0.098;2023-04-24T04:11:36;24.83;;;12.77;;
63259;SDS011;49390;51.380;0.098;2023-04-24T04:14:05;24.35;;;12.82;;
63259;SDS011;49390;51.380;0.098;2023-04-24T04:16:35;25.58;;;12.82;;
63259;SDS011;49390;51.380;0.098;2023-04-24T04:19:05;25.15;;;13.20;;
63259;SDS011;49390;51.380;0.098;2023-04-24T04:21:33;24.08;;;12.63;;
63259;SDS011;49390;51.380;0.098;2023-04-24T04:24:22;22.58;;;12.43;;
63259;SDS011;49390;51.380;0.098;2023-04-24T04:26:52;23.90;;;12.55;;
63259;SDS011;49390;51.380;0.098;2023-04-24T04:29:28;27.27;;;12.73;;
63259;SDS011;49390;51.380;0.098;2023-04-24T04:31:57;26.92;;;12.82;;
63259;SDS011;49390;51.380;0.098;2023-04-24T04:34:26;25.27;;;12.73;;
63259;SDS011;49390;51.380;0.098;2023-04-24T04:36:54;24.98;;;12.75;;
63259;SDS011;49390;51.380;0.098;2023-04-24T04:39:45;25.05;;;12.80;;
63259;SDS011;49390;51.380;0.098;2023-04-24T04:42:19;28.42;;;13.43;;
63259;SDS011;49390;51.380;0.098;2023-04-24T04:44:47;24.30;;;12.40;;
63259;SDS011;49390;51.380;0.098;2023-04-24T04:47:22;27.48;;;13.20;;
63259;SDS011;49390;51.380;0.098;2023-04-24T04:49:53;23.88;;;13.48;;
63259;SDS011;49390;51.380;0.098;2023-04-24T04:52:24;24.17;;;12.27;;
63259;SDS011;49390;51.380;0.098;2023-04-24T04:55:00;25.73;;;13.18;;
63259;SDS011;49390;51.380;0.098;2023-04-24T04:57:52;27.15;;;13.73;;
63259;SDS011;49390;51.380;0.098;2023-04-24T05:00:20;28.20;;;13.35;;
63259;SDS011;49390;51.380;0.098;2023-04-24T05:02:52;23.48;;;12.88;;
63259;SDS011;49390;51.380;0.098;2023-04-24T05:05:20;26.27;;;13.90;;
63259;SDS011;49390;51.380;0.098;2023-04-24T05:07:49;24.27;;;13.18;;
63259;SDS011;49390;51.380;0.098;2023-04-24T05:10:17;23.73;;;13.20;;
63259;SDS011;49390;51.380;0.098;2023-04-24T05:12:45;25.10;;;13.20;;
63259;SDS011;49390;51.380;0.098;2023-04-24T05:15:12;26.98;;;13.93;;
63259;SDS011;49390;51.380;0.098;2023-04-24T05:17:41;28.02;;;14.50;;
63259;SDS011;49390;51.380;0.098;2023-04-24T05:20:09;25.10;;;13.35;;
63259;SDS011;49390;51.380;0.098;2023-04-24T05:22:38;25.10;;;14.20;;
63259;SDS011;49390;51.380;0.098;2023-04-24T05:25:07;26.02;;;12.48;;
63259;SDS011;49390;51.380;0.098;2023-04-24T05:27:40;25.08;;;12.77;;
63259;SDS011;49390;51.380;0.098;2023-04-24T05:30:14;23.92;;;12.93;;
63259;SDS011;49390;51.380;0.098;2023-04-24T05:32:42;22.13;;;12.68;;
63259;SDS011;49390;51.380;0.098;2023-04-24T05:35:10;22.20;;;12.40;;
63259;SDS011;49390;51.380;0.098;2023-04-24T05:37:38;26.35;;;13.77;;
63259;SDS011;49390;51.380;0.098;2023-04-24T05:40:06;22.48;;;12.40;;
63259;SDS011;49390;51.380;0.098;2023-04-24T05:42:36;24.17;;;12.23;;
63259;SDS011;49390;51.380;0.098;2023-04-24T05:45:04;25.08;;;11.80;;
63259;SDS011;49390;51.380;0.098;2023-04-24T05:47:33;26.33;;;13.23;;
63259;SDS011;49390;51.380;0.098;2023-04-24T05:50:01;24.60;;;12.90;;
63259;SDS011;49390;51.380;0.098;2023-04-24T05:52:30;23.05;;;12.75;;
63259;SDS011;49390;51.380;0.098;2023-04-24T05:56:28;22.52;;;12.50;;
63259;SDS011;49390;51.380;0.098;2023-04-24T05:58:58;23.63;;;12.45;;
63259;SDS011;49390;51.380;0.098;2023-04-24T06:01:26;21.70;;;11.95;;
63259;SDS011;49390;51.380;0.098;2023-04-24T06:04:05;23.33;;;12.55;;
63259;SDS011;49390;51.380;0.098;2023-04-24T06:06:34;26.27;;;13.70;;
63259;SDS011;49390;51.380;0.098;2023-04-24T06:09:03;24.67;;;11.55;;
63259;SDS011;49390;51.380;0.098;2023-04-24T06:11:34;25.90;;;12.13;;
63259;SDS011;49390;51.380;0.098;2023-04-24T06:14:03;20.17;;;10.75;;
63259;SDS011;49390;51.380;0.098;2023-04-24T06:16:36;23.83;;;11.40;;
63259;SDS011;49390;51.380;0.098;2023-04-24T06:19:17;21.55;;;10.77;;
63259;SDS011;49390;51.380;0.098;2023-04-24T06:21:45;22.05;;;12.00;;
63259;SDS011;49390;51.380;0.098;2023-04-24T06:24:16;22.17;;;11.25;;
63259;SDS011;49390;51.380;0.098;2023-04-24T06:26:44;23.55;;;10.88;;
63259;SDS011;49390;51.380;0.098;2023-04-24T06:29:12;23.73;;;11.63;;
63259;SDS011;49390;51.380;0.098;2023-04-24T06:31:40;22.23;;;11.43;;
63259;SDS011;49390;51.380;0.098;2023-04-24T06:34:08;22.00;;;11.43;;
63259;SDS011;49390;51.380;0.098;2023-04-24T06:36:36;20.70;;;10.38;;
63259;SDS011;49390;51.380;0.098;2023-04-24T06:39:04;16.98;;;7.78;;
63259;SDS011;49390;51.380;0.098;2023-04-24T06:41:32;16.10;;;7.70;;
63259;SDS011;49390;51.380;0.098;2023-04-24T06:44:00;14.13;;;6.28;;
63259;SDS011;49390;51.380;0.098;2023-04-24T06:46:28;12.90;;;6.13;;
63259;SDS011;49390;51.380;0.098;2023-04-24T06:48:57;13.02;;;5.75;;
63259;SDS011;49390;51.380;0.098;2023-04-24T06:51:25;13.60;;;6.38;;
63259;SDS011;49390;51.380;0.098;2023-04-24T06:53:54;9.52;;;5.03;;
63259;SDS011;49390;51.380;0.098;2023-04-24T06:56:25;11.37;;;5.10;;
63259;SDS011;49390;51.380;0.098;2023-04-24T06:58:53;9.98;;;5.15;;
63259;SDS011;49390;51.380;0.098;2023-04-24T07:01:21;11.95;;;5.00;;
63259;SDS011;49390;51.380;0.098;2023-04-24T07:03:50;8.20;;;5.07;;
63259;SDS011;49390;51.380;0.098;2023-04-24T07:06:18;8.18;;;4.50;;
63259;SDS011;49390;51.380;0.098;2023-04-24T07:08:48;9.43;;;4.30;;
63259;SDS011;49390;51.380;0.098;2023-04-24T07:11:17;10.27;;;4.00;;
63259;SDS011;49390;51.380;0.098;2023-04-24T07:13:45;9.77;;;3.60;;
63259;SDS011;49390;51.380;0.098;2023-04-24T07:16:13;9.93;;;3.70;;
63259;SDS011;49390;51.380;0.098;2023-04-24T07:18:41;8.52;;;3.80;;
63259;SDS011;49390;51.380;0.098;2023-04-24T07:21:09;7.82;;;3.90;;
63259;SDS011;49390;51.380;0.098;2023-04-24T07:23:37;10.55;;;3.90;;
63259;SDS011;49390;51.380;0.098;2023-04-24T07:26:05;8.60;;;4.20;;
63259;SDS011;49390;51.380;0.098;2023-04-24T07:28:33;8.48;;;3.30;;
63259;SDS011;49390;51.380;0.098;2023-04-24T07:31:01;10.68;;;4.15;;
63259;SDS011;49390;51.380;0.098;2023-04-24T07:33:29;8.48;;;3.75;;
63259;SDS011;49390;51.380;0.098;2023-04-24T07:35:58;5.28;;;3.10;;
63259;SDS011;49390;51.380;0.098;2023-04-24T07:38:27;8.18;;;3.40;;
63259;SDS011;49390;51.380;0.098;2023-04-24T07:40:57;7.32;;;3.20;;
63259;SDS011;49390;51.380;0.098;2023-04-24T07:43:25;6.60;;;3.15;;
63259;SDS011;49390;51.380;0.098;2023-04-24T07:45:52;7.25;;;3.42;;
63259;SDS011;49390;51.380;0.098;2023-04-24T07:48:21;7.38;;;3.00;;
63259;SDS011;49390;51.380;0.098;2023-04-24T07:50:49;8.10;;;3.40;;
63259;SDS011;49390;51.380;0.098;2023-04-24T07:53:17;10.15;;;3.10;;
63259;SDS011;49390;51.380;0.098;2023-04-24T07:55:45;8.25;;;3.08;;
63259;SDS011;49390;51.380;0.098;2023-04-24T07:58:14;7.68;;;3.13;;
63259;SDS011;49390;51.380;0.098;2023-04-24T08:00:42;9.15;;;3.25;;
63259;SDS011;49390;51.380;0.098;2023-04-24T08:03:10;6.57;;;3.00;;
63259;SDS011;49390;51.380;0.098;2023-04-24T08:05:40;6.60;;;2.60;;
63259;SDS011;49390;51.380;0.098;2023-04-24T08:08:09;8.05;;;3.10;;
63259;SDS011;49390;51.380;0.098;2023-04-24T08:10:37;7.97;;;3.30;;
63259;SDS011;49390;51.380;0.098;2023-04-24T08:13:05;5.82;;;2.88;;
63259;SDS011;49390;51.380;0.098;2023-04-24T08:15:33;6.60;;;2.80;;
63259;SDS011;49390;51.380;0.098;2023-04-24T08:18:02;6.38;;;3.00;;
63259;SDS011;49390;51.380;0.098;2023-04-24T08:20:30;7.93;;;3.50;;
63259;SDS011;49390;51.380;0.098;2023-04-24T08:22:58;6.15;;;3.17;;
63259;SDS011;49390;51.380;0.098;2023-04-24T08:25:26;5.00;;;2.78;;
63259;SDS011;49390;51.380;0.098;2023-04-24T08:27:54;7.00;;;3.20;;
63259;SDS011;49390;51.380;0.098;2023-04-24T08:30:22;6.45;;;2.88;;
63259;SDS011;49390;51.380;0.098;2023-04-24T08:32:50;6.25;;;3.03;;
63259;SDS011;49390;51.380;0.098;2023-04-24T08:35:18;5.90;;;3.28;;
63259;SDS011;49390;51.380;0.098;2023-04-24T08:37:46;7.47;;;3.33;;
63259;SDS011;49390;51.380;0.098;2023-04-24T08:40:15;8.00;;;3.33;;
63259;SDS011;49390;51.380;0.098;2023-04-24T08:42:44;7.32;;;3.20;;
63259;SDS011;49390;51.380;0.098;2023-04-24T08:45:12;7.00;;;3.60;;
63259;SDS011;49390;51.380;0.098;2023-04-24T08:47:41;6.93;;;3.65;;
63259;SDS011;49390;51.380;0.098;2023-04-24T08:50:09;7.30;;;3.80;;
63259;SDS011;49390;51.380;0.098;2023-04-24T08:52:38;6.72;;;3.50;;
63259;SDS011;49390;51.380;0.098;2023-04-24T08:55:06;9.65;;;3.75;;
63259;SDS011;49390;51.380;0.098;2023-04-24T08:57:35;5.45;;;3.15;;
63259;SDS011;49390;51.380;0.098;2023-04-24T09:00:05;8.33;;;3.70;;
63259;SDS011;49390;51.380;0.098;2023-04-24T09:02:39;8.30;;;3.97;;
63259;SDS011;49390;51.380;0.098;2023-04-24T09:05:10;7.43;;;3.78;;
63259;SDS011;49390;51.380;0.098;2023-04-24T09:07:41;9.45;;;3.78;;
63259;SDS011;49390;51.380;0.098;2023-04-24T09:10:16;7.82;;;4.07;;
63259;SDS011;49390;51.380;0.098;2023-04-24T09:12:44;9.38;;;3.60;;
63259;SDS011;49390;51.380;0.098;2023-04-24T09:15:13;7.20;;;3.70;;
63259;SDS011;49390;51.380;0.098;2023-04-24T09:17:43;8.13;;;3.53;;
63259;SDS011;49390;51.380;0.098;2023-04-24T09:20:11;6.15;;;4.00;;
63259;SDS011;49390;51.380;0.098;2023-04-24T09:22:39;6.80;;;3.53;;
63259;SDS011;49390;51.380;0.098;2023-04-24T09:25:07;8.70;;;4.38;;
63259;SDS011;49390;51.380;0.098;2023-04-24T09:27:36;8.88;;;3.83;;
63259;SDS011;49390;51.380;0.098;2023-04-24T09:30:12;8.85;;;4.22;;
63259;SDS011;49390;51.380;0.098;2023-04-24T09:32:41;9.32;;;4.03;;
63259;SDS011;49390;51.380;0.098;2023-04-24T09:35:11;7.72;;;3.85;;
63259;SDS011;49390;51.380;0.098;2023-04-24T09:37:45;7.38;;;3.70;;
63259;SDS011;49390;51.380;0.098;2023-04-24T09:40:20;6.80;;;4.10;;
63259;SDS011;49390;51.380;0.098;2023-04-24T09:42:53;8.18;;;3.97;;
63259;SDS011;49390;51.380;0.098;2023-04-24T09:45:44;8.55;;;3.78;;
63259;SDS011;49390;51.380;0.098;2023-04-24T09:48:11;9.60;;;4.43;;
63259;SDS011;49390;51.380;0.098;2023-04-24T09:50:38;8.63;;;3.88;;
63259;SDS011;49390;51.380;0.098;2023-04-24T09:53:13;8.98;;;4.13;;
63259;SDS011;49390;51.380;0.098;2023-04-24T09:55:44;11.05;;;5.47;;
63259;SDS011;49390;51.380;0.098;2023-04-24T09:58:17;8.35;;;4.32;;
63259;SDS011;49390;51.380;0.098;2023-04-24T10:00:46;7.35;;;4.07;;
63259;SDS011;49390;51.380;0.098;2023-04-24T10:03:16;8.98;;;4.90;;
63259;SDS011;49390;51.380;0.098;2023-04-24T10:05:46;8.20;;;4.60;;
63259;SDS011;49390;51.380;0.098;2023-04-24T10:08:14;9.88;;;4.18;;
63259;SDS011;49390;51.380;0.098;2023-04-24T10:10:42;10.15;;;4.70;;
63259;SDS011;49390;51.380;0.098;2023-04-24T10:13:13;8.00;;;4.05;;
63259;SDS011;49390;51.380;0.098;2023-04-24T10:15:42;12.13;;;4.70;;
63259;SDS011;49390;51.380;0.098;2023-04-24T10:18:11;11.32;;;4.75;;
63259;SDS011;49390;51.380;0.098;2023-04-24T10:20:39;8.63;;;4.20;;
63259;SDS011;49390;51.380;0.098;2023-04-24T10:23:08;9.80;;;4.18;;
63259;SDS011;49390;51.380;0.098;2023-04-24T10:25:36;9.05;;;4.78;;
63259;SDS011;49390;51.380;0.098;2023-04-24T10:28:04;9.20;;;4.63;;
63259;SDS011;49390;51.380;0.098;2023-04-24T10:30:35;8.15;;;4.30;;
63259;SDS011;49390;51.380;0.098;2023-04-24T10:33:07;9.15;;;4.20;;
63259;SDS011;49390;51.380;0.098;2023-04-24T10:35:37;9.20;;;4.70;;
63259;SDS011;49390;51.380;0.098;2023-04-24T10:38:13;8.60;;;4.40;;
63259;SDS011;49390;51.380;0.098;2023-04-24T10:40:43;10.90;;;5.18;;
63259;SDS011;49390;51.380;0.098;2023-04-24T10:43:13;8.20;;;4.60;;
63259;SDS011;49390;51.380;0.098;2023-04-24T10:46:00;6.68;;;3.85;;
63259;SDS011;49390;51.380;0.098;2023-04-24T10:48:33;6.53;;;4.13;;
63259;SDS011;49390;51.380;0.098;2023-04-24T10:51:01;8.15;;;4.18;;
63259;SDS011;49390;51.380;0.098;2023-04-24T10:53:29;8.07;;;4.00;;
63259;SDS011;49390;51.380;0.098;2023-04-24T10:56:05;9.88;;;4.40;;
63259;SDS011;49390;51.380;0.098;2023-04-24T10:58:39;7.05;;;4.30;;
63259;SDS011;49390;51.380;0.098;2023-04-24T11:01:25;9.00;;;3.90;;
63259;SDS011;49390;51.380;0.098;2023-04-24T11:04:02;7.93;;;4.10;;
63259;SDS011;49390;51.380;0.098;2023-04-24T11:06:33;9.15;;;4.22;;
63259;SDS011;49390;51.380;0.098;2023-04-24T11:09:08;7.43;;;4.22;;
63259;SDS011;49390;51.380;0.098;2023-04-24T11:11:44;8.95;;;4.57;;
63259;SDS011;49390;51.380;0.098;2023-04-24T11:14:16;7.13;;;4.43;;
63259;SDS011;49390;51.380;0.098;2023-04-24T11:16:53;9.70;;;4.40;;
63259;SDS011;49390;51.380;0.098;2023-04-24T11:19:25;10.77;;;4.70;;
63259;SDS011;49390;51.380;0.098;2023-04-24T11:21:58;9.38;;;5.03;;
63259;SDS011;49390;51.380;0.098;2023-04-24T11:27:17;10.50;;;5.50;;
63259;SDS011;49390;51.380;0.098;2023-04-24T11:32:23;9.65;;;5.00;;
63259;SDS011;49390;51.380;0.098;2023-04-24T11:35:06;8.88;;;4.93;;
63259;SDS011;49390;51.380;0.098;2023-04-24T11:37:46;8.15;;;4.97;;
63259;SDS011;49390;51.380;0.098;2023-04-24T11:40:24;10.68;;;5.13;;
63259;SDS011;49390;51.380;0.098;2023-04-24T11:42:53;8.68;;;5.05;;
63259;SDS011;49390;51.380;0.098;2023-04-24T11:45:25;9.90;;;4.88;;
63259;SDS011;49390;51.380;0.098;2023-04-24T11:47:55;10.35;;;5.28;;
63259;SDS011;49390;51.380;0.098;2023-04-24T11:50:25;10.30;;;4.88;;
63259;SDS011;49390;51.380;0.098;2023-04-24T11:52:55;10.07;;;4.90;;
63259;SDS011;49390;51.380;0.098;2023-04-24T11:55:24;10.55;;;5.28;;
63259;SDS011;49390;51.380;0.098;2023-04-24T11:57:55;9.80;;;4.93;;
63259;SDS011;49390;51.380;0.098;2023-04-24T12:00:25;10.37;;;5.27;;
63259;SDS011;49390;51.380;0.098;2023-04-24T12:03:10;11.68;;;5.35;;
63259;SDS011;49390;51.380;0.098;2023-04-24T12:05:40;10.40;;;4.75;;
63259;SDS011;49390;51.380;0.098;2023-04-24T12:08:08;9.70;;;5.10;;
63259;SDS011;49390;51.380;0.098;2023-04-24T12:10:37;10.10;;;5.10;;
63259;SDS011;49390;51.380;0.098;2023-04-24T12:13:05;10.30;;;5.65;;
63259;SDS011;49390;51.380;0.098;2023-04-24T12:15:39;10.38;;;5.38;;
63259;SDS011;49390;51.380;0.098;2023-04-24T12:18:08;8.35;;;4.70;;
63259;SDS011;49390;51.380;0.098;2023-04-24T12:20:40;12.05;;;5.20;;
63259;SDS011;49390;51.380;0.098;2023-04-24T12:23:08;8.63;;;5.30;;
63259;SDS011;49390;51.380;0.098;2023-04-24T12:25:38;11.02;;;5.47;;
63259;SDS011;49390;51.380;0.098;2023-04-24T12:30:38;8.38;;;5.05;;
63259;SDS011;49390;51.380;0.098;2023-04-24T12:33:17;9.75;;;5.13;;
63259;SDS011;49390;51.380;0.098;2023-04-24T12:35:56;10.70;;;5.22;;
63259;SDS011;49390;51.380;0.098;2023-04-24T12:38:25;10.07;;;5.25;;
63259;SDS011;49390;51.380;0.098;2023-04-24T12:41:05;11.18;;;5.18;;
63259;SDS011;49390;51.380;0.098;2023-04-24T12:43:34;9.68;;;5.38;;
63259;SDS011;49390;51.380;0.098;2023-04-24T12:46:03;10.02;;;5.40;;
63259;SDS011;49390;51.380;0.098;2023-04-24T12:48:32;11.10;;;5.80;;
63259;SDS011;49390;51.380;0.098;2023-04-24T12:51:00;10.05;;;5.25;;
63259;SDS011;49390;51.380;0.098;2023-04-24T12:53:28;11.38;;;5.72;;
63259;SDS011;49390;51.380;0.098;2023-04-24T12:55:58;10.63;;;5.13;;
63259;SDS011;49390;51.380;0.098;2023-04-24T12:58:26;9.00;;;5.22;;
63259;SDS011;49390;51.380;0.098;2023-04-24T13:00:54;10.32;;;5.32;;
63259;SDS011;49390;51.380;0.098;2023-04-24T13:03:22;10.00;;;5.35;;
63259;SDS011;49390;51.380;0.098;2023-04-24T13:05:50;8.38;;;5.07;;
63259;SDS011;49390;51.380;0.098;2023-04-24T13:08:18;10.18;;;5.35;;
63259;SDS011;49390;51.380;0.098;2023-04-24T13:10:46;10.80;;;4.95;;
63259;SDS011;49390;51.380;0.098;2023-04-24T13:13:14;8.48;;;4.80;;
63259;SDS011;49390;51.380;0.098;2023-04-24T13:15:42;8.68;;;4.88;;
63259;SDS011;49390;51.380;0.098;2023-04-24T13:18:10;8.80;;;4.80;;
63259;SDS011;49390;51.380;0.098;2023-04-24T13:20:39;8.40;;;4.85;;
63259;SDS011;49390;51.380;0.098;2023-04-24T13:23:08;8.43;;;5.38;;
63259;SDS011;49390;51.380;0.098;2023-04-24T13:25:36;7.60;;;4.80;;
63259;SDS011;49390;51.380;0.098;2023-04-24T13:28:06;7.97;;;4.75;;
63259;SDS011;49390;51.380;0.098;2023-04-24T13:30:34;8.90;;;4.80;;
63259;SDS011;49390;51.380;0.098;2023-04-24T13:33:02;7.97;;;4.97;;
63259;SDS011;49390;51.380;0.098;2023-04-24T13:35:30;9.00;;;4.82;;
63259;SDS011;49390;51.380;0.098;2023-04-24T13:37:58;10.23;;;5.03;;
63259;SDS011;49390;51.380;0.098;2023-04-24T13:40:28;9.07;;;4.88;;
63259;SDS011;49390;51.380;0.098;2023-04-24T13:42:56;8.38;;;4.65;;
63259;SDS011;49390;51.380;0.098;2023-04-24T13:45:27;9.73;;;5.18;;
63259;SDS011;49390;51.380;0.098;2023-04-24T13:47:55;10.68;;;5.03;;
63259;SDS011;49390;51.380;0.098;2023-04-24T13:50:24;8.43;;;4.93;;
63259;SDS011;49390;51.380;0.098;2023-04-24T13:52:52;9.77;;;4.38;;
63259;SDS011;49390;51.380;0.098;2023-04-24T13:55:21;9.00;;;4.78;;
63259;SDS011;49390;51.380;0.098;2023-04-24T13:57:49;8.73;;;5.22;;
63259;SDS011;49390;51.380;0.098;2023-04-24T14:00:17;10.50;;;5.20;;
63259;SDS011;49390;51.380;0.098;2023-04-24T14:02:46;9.82;;;4.88;;
63259;SDS011;49390;51.380;0.098;2023-04-24T14:05:14;8.77;;;5.18;;
63259;SDS011;49390;51.380;0.098;2023-04-24T14:07:42;8.85;;;5.68;;
63259;SDS011;49390;51.380;0.098;2023-04-24T14:10:10;9.43;;;5.00;;
63259;SDS011;49390;51.380;0.098;2023-04-24T14:12:38;8.52;;;4.55;;
63259;SDS011;49390;51.380;0.098;2023-04-24T14:15:07;8.50;;;4.38;;
63259;SDS011;49390;51.380;0.098;2023-04-24T14:17:35;9.60;;;5.03;;
63259;SDS011;49390;51.380;0.098;2023-04-24T14:20:04;8.10;;;4.78;;
63259;SDS011;49390;51.380;0.098;2023-04-24T14:22:32;8.80;;;5.03;;
63259;SDS011;49390;51.380;0.098;2023-04-24T14:25:00;9.25;;;5.28;;
63259;SDS011;49390;51.380;0.098;2023-04-24T14:27:28;8.93;;;4.47;;
63259;SDS011;49390;51.380;0.098;2023-04-24T14:29:57;9.18;;;4.80;;
63259;SDS011;49390;51.380;0.098;2023-04-24T14:32:25;10.73;;;5.28;;
63259;SDS011;49390;51.380;0.098;2023-04-24T14:34:54;7.47;;;4.32;;
63259;SDS011;49390;51.380;0.098;2023-04-24T14:37:22;8.80;;;5.15;;
63259;SDS011;49390;51.380;0.098;2023-04-24T14:39:50;9.02;;;5.13;;
63259;SDS011;49390;51.380;0.098;2023-04-24T14:42:40;11.07;;;5.72;;
63259;SDS011;49390;51.380;0.098;2023-04-24T14:45:08;8.20;;;4.90;;
63259;SDS011;49390;51.380;0.098;2023-04-24T14:47:36;7.72;;;4.25;;
63259;SDS011;49390;51.380;0.098;2023-04-24T14:50:05;7.93;;;3.95;;
63259;SDS011;49390;51.380;0.098;2023-04-24T14:52:34;9.88;;;4.75;;
63259;SDS011;49390;51.380;0.098;2023-04-24T14:55:03;8.85;;;4.82;;
63259;SDS011;49390;51.380;0.098;2023-04-24T14:57:31;10.23;;;4.90;;
63259;SDS011;49390;51.380;0.098;2023-04-24T15:00:00;9.27;;;4.88;;